sensor_id;sensor_type;location;lat;lon;timestamp;pressure;altitude;pressure_sealevel;temperature;humidity
42247;BME280;27913;42.722;23.268;2022-12-18T00:00:06;95747.94;;;4.86;100.00
42247;BME280;27913;42.722;23.268;2022-12-18T00:02:31;95757.69;;;4.83;100.00
42247;BME280;27913;42.722;23.268;2022-12-18T00:04:57;95737.78;;;4.73;100.00
42247;BME280;27913;42.722;23.268;2022-12-18T00:07:22;95625.09;;;3.98;100.00
42247;BME280;27913;42.722;23.268;2022-12-18T00:09:48;95451.59;;;2.73;100.00
42247;BME280;27913;42.722;23.268;2022-12-18T00:12:14;95801.50;;;4.58;100.00
42247;BME280;27913;42.722;23.268;2022-12-18T00:14:39;95750.16;;;4.49;100.00
42247;BME280;27913;42.722;23.268;2022-12-18T00:17:05;95775.44;;;4.58;100.00
42247;BME280;27913;42.722;23.268;2022-12-18T00:19:30;95792.00;;;4.57;100.00
42247;BME280;27913;42.722;23.268;2022-12-18T00:21:56;95787.75;;;4.56;100.00
42247;BME280;27913;42.722;23.268;2022-12-18T00:24:23;95531.88;;;2.98;100.00
42247;BME280;27913;42.722;23.268;2022-12-18T00:26:48;95771.69;;;4.51;100.00
42247;BME280;27913;42.722;23.268;2022-12-18T00:29:14;95737.13;;;4.18;100.00
42247;BME280;27913;42.722;23.268;2022-12-18T00:31:41;95773.66;;;4.38;100.00
42247;BME280;27913;42.722;23.268;2022-12-18T00:34:10;95804.28;;;4.45;100.00
42247;BME280;27913;42.722;23.268;2022-12-18T00:36:37;95805.13;;;4.46;100.00
42247;BME280;27913;42.722;23.268;2022-12-18T00:39:04;95803.97;;;4.39;100.00
42247;BME280;27913;42.722;23.268;2022-12-18T00:41:30;95610.78;;;3.18;100.00
42247;BME280;27913;42.722;23.268;2022-12-18T00:44:16;95818.66;;;4.40;100.00
42247;BME280;27913;42.722;23.268;2022-12-18T00:46:42;95804.69;;;4.41;100.00
42247;BME280;27913;42.722;23.268;2022-12-18T00:49:09;95572.28;;;2.90;100.00
42247;BME280;27913;42.722;23.268;2022-12-18T00:51:34;95674.69;;;3.54;100.00
42247;BME280;27913;42.722;23.268;2022-12-18T00:54:00;95815.59;;;4.34;100.00
42247;BME280;27913;42.722;23.268;2022-12-18T00:56:25;95795.91;;;4.20;100.00
42247;BME280;27913;42.722;23.268;2022-12-18T00:58:51;95819.09;;;4.23;100.00
42247;BME280;27913;42.722;23.268;2022-12-18T01:03:52;95683.53;;;3.30;100.00
42247;BME280;27913;42.722;23.268;2022-12-18T01:06:18;95699.63;;;3.23;100.00
42247;BME280;27913;42.722;23.268;2022-12-18T01:08:44;95701.09;;;3.37;100.00
42247;BME280;27913;42.722;23.268;2022-12-18T01:11:12;95820.69;;;4.15;100.00
42247;BME280;27913;42.722;23.268;2022-12-18T01:13:38;95624.06;;;2.82;100.00
42247;BME280;27913;42.722;23.268;2022-12-18T01:16:04;95695.59;;;3.31;100.00
42247;BME280;27913;42.722;23.268;2022-12-18T01:18:29;95826.41;;;4.08;100.00
42247;BME280;27913;42.722;23.268;2022-12-18T01:20:55;95844.19;;;4.03;100.00
42247;BME280;27913;42.722;23.268;2022-12-18T01:23:20;95834.16;;;3.98;100.00
42247;BME280;27913;42.722;23.268;2022-12-18T01:25:46;95851.78;;;3.95;100.00
42247;BME280;27913;42.722;23.268;2022-12-18T01:28:12;95853.94;;;3.90;100.00
42247;BME280;27913;42.722;23.268;2022-12-18T01:30:37;95823.44;;;3.80;100.00
42247;BME280;27913;42.722;23.268;2022-12-18T01:33:04;95857.25;;;3.92;100.00
42247;BME280;27913;42.722;23.268;2022-12-18T01:35:31;95856.16;;;3.94;100.00
42247;BME280;27913;42.722;23.268;2022-12-18T01:37:57;95855.44;;;3.92;100.00
42247;BME280;27913;42.722;23.268;2022-12-18T01:40:23;95793.16;;;3.46;100.00
42247;BME280;27913;42.722;23.268;2022-12-18T01:42:52;95873.94;;;3.89;100.00
42247;BME280;27913;42.722;23.268;2022-12-18T01:47:44;95814.56;;;3.50;100.00
42247;BME280;27913;42.722;23.268;2022-12-18T01:52:52;95861.19;;;3.74;100.00
42247;BME280;27913;42.722;23.268;2022-12-18T01:55:21;95819.03;;;3.48;100.00
42247;BME280;27913;42.722;23.268;2022-12-18T01:57:48;95873.13;;;3.77;100.00
42247;BME280;27913;42.722;23.268;2022-12-18T02:00:17;95868.88;;;3.76;100.00
42247;BME280;27913;42.722;23.268;2022-12-18T02:02:44;95831.00;;;3.50;100.00
42247;BME280;27913;42.722;23.268;2022-12-18T02:05:11;95766.59;;;2.98;100.00
42247;BME280;27913;42.722;23.268;2022-12-18T02:10:09;95802.06;;;3.32;100.00
42247;BME280;27913;42.722;23.268;2022-12-18T02:12:45;95876.94;;;3.73;100.00
42247;BME280;27913;42.722;23.268;2022-12-18T02:15:51;95868.31;;;3.72;100.00
42247;BME280;27913;42.722;23.268;2022-12-18T02:18:48;95880.25;;;3.75;100.00
42247;BME280;27913;42.722;23.268;2022-12-18T02:24:01;95808.47;;;3.28;100.00
42247;BME280;27913;42.722;23.268;2022-12-18T02:29:10;95881.41;;;3.71;100.00
42247;BME280;27913;42.722;23.268;2022-12-18T02:31:46;95757.63;;;2.91;100.00
42247;BME280;27913;42.722;23.268;2022-12-18T02:34:14;95892.53;;;3.73;100.00
42247;BME280;27913;42.722;23.268;2022-12-18T02:36:43;95756.69;;;2.81;100.00
42247;BME280;27913;42.722;23.268;2022-12-18T02:39:10;95668.19;;;2.26;100.00
42247;BME280;27913;42.722;23.268;2022-12-18T02:41:37;95850.53;;;3.22;100.00
42247;BME280;27913;42.722;23.268;2022-12-18T02:44:11;95870.84;;;3.40;100.00
42247;BME280;27913;42.722;23.268;2022-12-18T02:46:44;95892.69;;;3.60;100.00
42247;BME280;27913;42.722;23.268;2022-12-18T02:49:21;95843.22;;;3.16;100.00
42247;BME280;27913;42.722;23.268;2022-12-18T02:51:50;95853.47;;;3.29;100.00
42247;BME280;27913;42.722;23.268;2022-12-18T02:57:11;95837.22;;;2.92;100.00
42247;BME280;27913;42.722;23.268;2022-12-18T03:00:10;95905.38;;;3.42;100.00
42247;BME280;27913;42.722;23.268;2022-12-18T03:05:37;95842.66;;;3.00;100.00
42247;BME280;27913;42.722;23.268;2022-12-18T03:08:14;95839.56;;;2.95;100.00
42247;BME280;27913;42.722;23.268;2022-12-18T03:10:47;95804.63;;;2.65;100.00
42247;BME280;27913;42.722;23.268;2022-12-18T03:13:20;95871.00;;;3.15;100.00
42247;BME280;27913;42.722;23.268;2022-12-18T03:15:50;95867.00;;;3.11;100.00
42247;BME280;27913;42.722;23.268;2022-12-18T03:18:22;95840.75;;;2.91;100.00
42247;BME280;27913;42.722;23.268;2022-12-18T03:20:49;95851.38;;;2.99;100.00
42247;BME280;27913;42.722;23.268;2022-12-18T03:23:20;95904.78;;;3.26;100.00
42247;BME280;27913;42.722;23.268;2022-12-18T03:25:51;95709.47;;;2.07;100.00
42247;BME280;27913;42.722;23.268;2022-12-18T03:28:21;95781.84;;;2.46;100.00
42247;BME280;27913;42.722;23.268;2022-12-18T03:30:50;95868.53;;;3.02;100.00
42247;BME280;27913;42.722;23.268;2022-12-18T03:33:32;95859.91;;;3.01;100.00
42247;BME280;27913;42.722;23.268;2022-12-18T03:35:59;95875.84;;;2.97;100.00
42247;BME280;27913;42.722;23.268;2022-12-18T03:38:25;95943.19;;;3.34;100.00
42247;BME280;27913;42.722;23.268;2022-12-18T03:41:08;95881.03;;;2.85;100.00
42247;BME280;27913;42.722;23.268;2022-12-18T03:43:50;95934.81;;;3.19;100.00
42247;BME280;27913;42.722;23.268;2022-12-18T03:52:03;95978.28;;;3.06;100.00
42247;BME280;27913;42.722;23.268;2022-12-18T03:54:31;95719.00;;;1.47;100.00
42247;BME280;27913;42.722;23.268;2022-12-18T03:57:03;95965.28;;;3.06;100.00
42247;BME280;27913;42.722;23.268;2022-12-18T03:59:31;95969.53;;;3.07;100.00
42247;BME280;27913;42.722;23.268;2022-12-18T04:01:58;95864.94;;;2.46;100.00
42247;BME280;27913;42.722;23.268;2022-12-18T04:04:27;95904.88;;;2.68;100.00
42247;BME280;27913;42.722;23.268;2022-12-18T04:06:53;95866.34;;;2.50;100.00
42247;BME280;27913;42.722;23.268;2022-12-18T04:09:20;95860.53;;;2.35;100.00
42247;BME280;27913;42.722;23.268;2022-12-18T04:11:46;95908.53;;;2.65;100.00
42247;BME280;27913;42.722;23.268;2022-12-18T04:14:12;95980.28;;;3.02;100.00
42247;BME280;27913;42.722;23.268;2022-12-18T04:16:38;95872.84;;;2.44;100.00
42247;BME280;27913;42.722;23.268;2022-12-18T04:19:04;95985.84;;;3.09;100.00
42247;BME280;27913;42.722;23.268;2022-12-18T04:21:29;95725.47;;;1.41;100.00
42247;BME280;27913;42.722;23.268;2022-12-18T04:23:55;95988.88;;;2.91;100.00
42247;BME280;27913;42.722;23.268;2022-12-18T04:26:20;96006.72;;;2.96;100.00
42247;BME280;27913;42.722;23.268;2022-12-18T04:28:46;96008.59;;;2.94;100.00
42247;BME280;27913;42.722;23.268;2022-12-18T04:31:13;95908.31;;;2.32;100.00
42247;BME280;27913;42.722;23.268;2022-12-18T04:33:38;96028.59;;;2.93;100.00
42247;BME280;27913;42.722;23.268;2022-12-18T04:36:04;95918.56;;;2.22;100.00
42247;BME280;27913;42.722;23.268;2022-12-18T04:38:30;96028.22;;;2.98;100.00
42247;BME280;27913;42.722;23.268;2022-12-18T04:40:57;95866.56;;;1.99;100.00
42247;BME280;27913;42.722;23.268;2022-12-18T04:43:22;95976.44;;;2.72;100.00
42247;BME280;27913;42.722;23.268;2022-12-18T04:45:48;95884.56;;;1.89;99.90
42247;BME280;27913;42.722;23.268;2022-12-18T04:48:13;95981.66;;;2.47;99.76
42247;BME280;27913;42.722;23.268;2022-12-18T04:50:39;95743.56;;;1.05;99.32
42247;BME280;27913;42.722;23.268;2022-12-18T04:53:04;95762.53;;;1.06;99.12
42247;BME280;27913;42.722;23.268;2022-12-18T04:55:30;96044.09;;;2.70;100.00
42247;BME280;27913;42.722;23.268;2022-12-18T04:57:55;96048.69;;;2.67;99.83
42247;BME280;27913;42.722;23.268;2022-12-18T05:00:21;96057.84;;;2.59;100.00
42247;BME280;27913;42.722;23.268;2022-12-18T05:02:47;95738.50;;;0.66;100.00
42247;BME280;27913;42.722;23.268;2022-12-18T05:05:13;95896.31;;;1.58;100.00
42247;BME280;27913;42.722;23.268;2022-12-18T05:07:38;96021.72;;;2.32;100.00
42247;BME280;27913;42.722;23.268;2022-12-18T05:10:04;96074.16;;;2.61;100.00
42247;BME280;27913;42.722;23.268;2022-12-18T05:12:31;96005.47;;;2.16;100.00
42247;BME280;27913;42.722;23.268;2022-12-18T05:14:56;96078.13;;;2.54;100.00
42247;BME280;27913;42.722;23.268;2022-12-18T05:17:22;96059.94;;;2.29;100.00
42247;BME280;27913;42.722;23.268;2022-12-18T05:19:47;96097.47;;;2.50;100.00
42247;BME280;27913;42.722;23.268;2022-12-18T05:22:13;96023.25;;;2.10;100.00
42247;BME280;27913;42.722;23.268;2022-12-18T05:24:38;96083.69;;;2.49;100.00
42247;BME280;27913;42.722;23.268;2022-12-18T05:27:03;95867.59;;;1.10;100.00
42247;BME280;27913;42.722;23.268;2022-12-18T05:29:29;96039.16;;;2.05;99.61
42247;BME280;27913;42.722;23.268;2022-12-18T05:31:54;95844.75;;;0.91;99.00
42247;BME280;27913;42.722;23.268;2022-12-18T05:34:20;96111.63;;;2.46;98.76
42247;BME280;27913;42.722;23.268;2022-12-18T05:36:46;96003.19;;;1.87;98.60
42247;BME280;27913;42.722;23.268;2022-12-18T05:39:11;95827.38;;;0.67;97.90
42247;BME280;27913;42.722;23.268;2022-12-18T05:41:37;96115.81;;;2.35;98.21
42247;BME280;27913;42.722;23.268;2022-12-18T05:44:02;95980.44;;;1.53;97.92
42247;BME280;27913;42.722;23.268;2022-12-18T05:46:28;96116.72;;;2.34;98.27
42247;BME280;27913;42.722;23.268;2022-12-18T05:48:55;95888.03;;;0.89;97.83
42247;BME280;27913;42.722;23.268;2022-12-18T05:51:21;96129.31;;;2.27;98.58
42247;BME280;27913;42.722;23.268;2022-12-18T05:53:47;96061.63;;;1.80;98.77
42247;BME280;27913;42.722;23.268;2022-12-18T05:56:16;96132.41;;;2.33;98.68
42247;BME280;27913;42.722;23.268;2022-12-18T05:58:41;96132.31;;;2.34;98.35
42247;BME280;27913;42.722;23.268;2022-12-18T06:01:16;96113.06;;;2.12;98.22
42247;BME280;27913;42.722;23.268;2022-12-18T06:03:42;96156.75;;;2.32;98.58
42247;BME280;27913;42.722;23.268;2022-12-18T06:06:18;95998.09;;;1.35;98.36
42247;BME280;27913;42.722;23.268;2022-12-18T06:08:44;96163.69;;;2.31;98.69
42247;BME280;27913;42.722;23.268;2022-12-18T06:11:10;96167.75;;;2.35;98.45
42247;BME280;27913;42.722;23.268;2022-12-18T06:13:36;96160.47;;;2.40;98.90
42247;BME280;27913;42.722;23.268;2022-12-18T06:16:04;96149.06;;;2.30;98.76
42247;BME280;27913;42.722;23.268;2022-12-18T06:18:29;96156.19;;;2.39;98.36
42247;BME280;27913;42.722;23.268;2022-12-18T06:20:56;96117.53;;;2.10;98.23
42247;BME280;27913;42.722;23.268;2022-12-18T06:23:21;96155.47;;;2.37;98.00
42247;BME280;27913;42.722;23.268;2022-12-18T06:25:47;95998.91;;;1.49;98.03
42247;BME280;27913;42.722;23.268;2022-12-18T06:28:12;96165.34;;;2.32;97.16
42247;BME280;27913;42.722;23.268;2022-12-18T06:30:38;96171.25;;;2.34;97.33
42247;BME280;27913;42.722;23.268;2022-12-18T06:33:03;95877.69;;;0.63;96.90
42247;BME280;27913;42.722;23.268;2022-12-18T06:35:29;96115.03;;;1.96;96.31
42247;BME280;27913;42.722;23.268;2022-12-18T06:37:54;96150.63;;;2.20;95.92
42247;BME280;27913;42.722;23.268;2022-12-18T06:40:20;96183.84;;;2.27;94.84
42247;BME280;27913;42.722;23.268;2022-12-18T06:42:45;96143.97;;;2.15;94.59
42247;BME280;27913;42.722;23.268;2022-12-18T06:45:10;96042.47;;;1.43;93.94
42247;BME280;27913;42.722;23.268;2022-12-18T06:47:36;96148.34;;;2.15;93.81
42247;BME280;27913;42.722;23.268;2022-12-18T06:50:02;96196.59;;;2.31;93.82
42247;BME280;27913;42.722;23.268;2022-12-18T06:52:28;96197.84;;;2.38;93.79
42247;BME280;27913;42.722;23.268;2022-12-18T06:54:53;96192.66;;;2.38;92.91
42247;BME280;27913;42.722;23.268;2022-12-18T06:57:18;95959.13;;;0.98;92.75
42247;BME280;27913;42.722;23.268;2022-12-18T06:59:44;96131.97;;;2.01;92.37
42247;BME280;27913;42.722;23.268;2022-12-18T07:02:12;96201.28;;;2.38;92.92
42247;BME280;27913;42.722;23.268;2022-12-18T07:04:38;96156.25;;;2.00;93.31
42247;BME280;27913;42.722;23.268;2022-12-18T07:07:03;96144.94;;;1.88;94.24
42247;BME280;27913;42.722;23.268;2022-12-18T07:09:29;96207.31;;;2.26;95.16
42247;BME280;27913;42.722;23.268;2022-12-18T07:11:54;96200.88;;;2.19;95.00
42247;BME280;27913;42.722;23.268;2022-12-18T07:14:20;96209.38;;;2.21;95.78
42247;BME280;27913;42.722;23.268;2022-12-18T07:16:45;96154.06;;;1.81;95.86
42247;BME280;27913;42.722;23.268;2022-12-18T07:19:11;96214.59;;;2.21;95.99
42247;BME280;27913;42.722;23.268;2022-12-18T07:21:36;96215.59;;;2.18;96.48
42247;BME280;27913;42.722;23.268;2022-12-18T07:24:02;96207.94;;;2.16;96.09
42247;BME280;27913;42.722;23.268;2022-12-18T07:26:28;96208.66;;;2.19;96.41
42247;BME280;27913;42.722;23.268;2022-12-18T07:28:56;96222.47;;;2.19;96.27
42247;BME280;27913;42.722;23.268;2022-12-18T07:31:23;96161.84;;;1.81;95.92
42247;BME280;27913;42.722;23.268;2022-12-18T07:33:50;96239.59;;;2.22;96.52
42247;BME280;27913;42.722;23.268;2022-12-18T07:36:16;96162.06;;;1.78;96.99
42247;BME280;27913;42.722;23.268;2022-12-18T07:38:41;96224.84;;;2.22;97.18
42247;BME280;27913;42.722;23.268;2022-12-18T07:41:09;96027.84;;;1.03;97.44
42247;BME280;27913;42.722;23.268;2022-12-18T07:43:35;96159.06;;;1.84;97.57
42247;BME280;27913;42.722;23.268;2022-12-18T07:46:01;96233.69;;;2.33;97.55
42247;BME280;27913;42.722;23.268;2022-12-18T07:48:28;96125.88;;;1.63;97.48
42247;BME280;27913;42.722;23.268;2022-12-18T07:50:57;96232.31;;;2.27;97.86
42247;BME280;27913;42.722;23.268;2022-12-18T07:53:22;96130.94;;;1.65;98.14
42247;BME280;27913;42.722;23.268;2022-12-18T07:55:48;96168.59;;;1.84;98.29
42247;BME280;27913;42.722;23.268;2022-12-18T07:58:13;96152.59;;;1.64;98.52
42247;BME280;27913;42.722;23.268;2022-12-18T08:00:39;96185.41;;;1.91;98.61
42247;BME280;27913;42.722;23.268;2022-12-18T08:03:04;96263.28;;;2.30;98.80
42247;BME280;27913;42.722;23.268;2022-12-18T08:05:30;96163.31;;;1.72;98.79
42247;BME280;27913;42.722;23.268;2022-12-18T08:07:55;96192.59;;;2.00;98.99
42247;BME280;27913;42.722;23.268;2022-12-18T08:10:21;96190.94;;;1.86;97.49
42247;BME280;27913;42.722;23.268;2022-12-18T08:12:50;96111.53;;;1.31;97.14
42247;BME280;27913;42.722;23.268;2022-12-18T08:15:16;96158.13;;;1.59;96.83
42247;BME280;27913;42.722;23.268;2022-12-18T08:17:42;96205.75;;;1.84;96.13
42247;BME280;27913;42.722;23.268;2022-12-18T08:20:08;96263.38;;;2.28;96.00
42247;BME280;27913;42.722;23.268;2022-12-18T08:22:34;96153.44;;;1.51;95.55
42247;BME280;27913;42.722;23.268;2022-12-18T08:25:01;96177.53;;;1.66;95.24
42247;BME280;27913;42.722;23.268;2022-12-18T08:27:26;96138.06;;;1.48;95.24
42247;BME280;27913;42.722;23.268;2022-12-18T08:29:52;96228.94;;;2.00;94.49
42247;BME280;27913;42.722;23.268;2022-12-18T08:32:17;96219.97;;;2.04;94.38
42247;BME280;27913;42.722;23.268;2022-12-18T08:34:42;96283.13;;;2.44;94.01
42247;BME280;27913;42.722;23.268;2022-12-18T08:37:08;96152.94;;;1.59;93.03
42247;BME280;27913;42.722;23.268;2022-12-18T08:39:33;96302.66;;;2.37;93.03
42247;BME280;27913;42.722;23.268;2022-12-18T08:41:59;96257.88;;;2.20;92.83
42247;BME280;27913;42.722;23.268;2022-12-18T08:44:43;96238.34;;;2.01;92.17
42247;BME280;27913;42.722;23.268;2022-12-18T08:47:09;96229.09;;;1.97;92.02
42247;BME280;27913;42.722;23.268;2022-12-18T08:49:35;96011.38;;;0.51;91.29
42247;BME280;27913;42.722;23.268;2022-12-18T08:52:00;96235.66;;;2.03;91.35
42247;BME280;27913;42.722;23.268;2022-12-18T08:54:27;96305.44;;;2.47;90.72
42247;BME280;27913;42.722;23.268;2022-12-18T08:56:52;96105.59;;;1.29;90.25
42247;BME280;27913;42.722;23.268;2022-12-18T08:59:18;96219.16;;;1.91;90.55
42247;BME280;27913;42.722;23.268;2022-12-18T09:01:45;96248.31;;;2.08;90.24
42247;BME280;27913;42.722;23.268;2022-12-18T09:04:11;96200.22;;;1.76;89.60
42247;BME280;27913;42.722;23.268;2022-12-18T09:06:37;96238.66;;;2.10;89.21
42247;BME280;27913;42.722;23.268;2022-12-18T09:09:04;96305.63;;;2.57;89.32
42247;BME280;27913;42.722;23.268;2022-12-18T09:11:31;96273.66;;;2.43;88.53
42247;BME280;27913;42.722;23.268;2022-12-18T09:13:57;96152.53;;;1.78;87.93
42247;BME280;27913;42.722;23.268;2022-12-18T09:16:24;96022.56;;;1.05;87.60
42247;BME280;27913;42.722;23.268;2022-12-18T09:18:50;96156.44;;;1.97;87.33
42247;BME280;27913;42.722;23.268;2022-12-18T09:21:20;96285.47;;;2.73;86.32
42247;BME280;27913;42.722;23.268;2022-12-18T09:23:53;96054.91;;;1.25;85.87
42247;BME280;27913;42.722;23.268;2022-12-18T09:26:19;96309.69;;;2.74;86.48
42247;BME280;27913;42.722;23.268;2022-12-18T09:28:45;96314.78;;;2.75;86.02
42247;BME280;27913;42.722;23.268;2022-12-18T09:31:12;96296.59;;;2.75;85.70
42247;BME280;27913;42.722;23.268;2022-12-18T09:33:38;96192.78;;;2.10;86.85
42247;BME280;27913;42.722;23.268;2022-12-18T09:36:05;96305.94;;;2.78;86.86
42247;BME280;27913;42.722;23.268;2022-12-18T09:38:32;96289.00;;;2.85;87.11
42247;BME280;27913;42.722;23.268;2022-12-18T09:41:03;96025.06;;;1.19;86.28
42247;BME280;27913;42.722;23.268;2022-12-18T09:43:51;96291.75;;;2.95;86.35
42247;BME280;27913;42.722;23.268;2022-12-18T09:46:25;96272.03;;;2.93;85.89
42247;BME280;27913;42.722;23.268;2022-12-18T09:48:54;96227.72;;;2.57;83.92
42247;BME280;27913;42.722;23.268;2022-12-18T09:51:26;96192.97;;;2.20;83.78
42247;BME280;27913;42.722;23.268;2022-12-18T09:53:58;96247.97;;;2.51;84.10
42247;BME280;27913;42.722;23.268;2022-12-18T09:56:28;96304.81;;;2.82;83.87
42247;BME280;27913;42.722;23.268;2022-12-18T09:59:01;96234.81;;;2.41;83.73
42247;BME280;27913;42.722;23.268;2022-12-18T10:01:28;96305.81;;;2.80;82.97
42247;BME280;27913;42.722;23.268;2022-12-18T10:03:54;96195.56;;;2.20;83.63
42247;BME280;27913;42.722;23.268;2022-12-18T10:06:46;96264.19;;;2.68;85.29
42247;BME280;27913;42.722;23.268;2022-12-18T10:12:14;96260.47;;;2.59;84.45
42247;BME280;27913;42.722;23.268;2022-12-18T10:14:51;96196.19;;;2.24;84.99
42247;BME280;27913;42.722;23.268;2022-12-18T10:17:31;96205.81;;;2.48;84.82
42247;BME280;27913;42.722;23.268;2022-12-18T10:20:13;96193.44;;;2.51;84.97
42247;BME280;27913;42.722;23.268;2022-12-18T10:23:02;96021.84;;;1.42;83.07
42247;BME280;27913;42.722;23.268;2022-12-18T10:25:36;96310.56;;;3.12;83.04
42247;BME280;27913;42.722;23.268;2022-12-18T10:28:14;96301.69;;;3.14;82.70
42247;BME280;27913;42.722;23.268;2022-12-18T10:30:42;96308.81;;;3.12;83.68
42247;BME280;27913;42.722;23.268;2022-12-18T10:33:16;96313.03;;;3.13;83.96
42247;BME280;27913;42.722;23.268;2022-12-18T10:35:43;96266.72;;;2.94;83.38
42247;BME280;27913;42.722;23.268;2022-12-18T10:43:41;96287.69;;;3.42;82.17
42247;BME280;27913;42.722;23.268;2022-12-18T10:51:26;96221.78;;;3.05;81.09
42247;BME280;27913;42.722;23.268;2022-12-18T10:53:57;96049.56;;;1.92;81.61
42247;BME280;27913;42.722;23.268;2022-12-18T10:56:26;96013.81;;;1.71;79.60
42247;BME280;27913;42.722;23.268;2022-12-18T10:59:13;96185.81;;;2.74;78.36
42247;BME280;27913;42.722;23.268;2022-12-18T11:04:25;96151.09;;;2.38;79.31
42247;BME280;27913;42.722;23.268;2022-12-18T11:07:05;96298.41;;;3.37;79.88
42247;BME280;27913;42.722;23.268;2022-12-18T11:09:35;96200.25;;;2.78;80.22
42247;BME280;27913;42.722;23.268;2022-12-18T11:12:04;96130.56;;;2.35;80.62
42247;BME280;27913;42.722;23.268;2022-12-18T11:14:43;96310.13;;;3.43;80.95
42247;BME280;27913;42.722;23.268;2022-12-18T11:17:31;96292.44;;;3.48;80.20
42247;BME280;27913;42.722;23.268;2022-12-18T11:20:06;96246.78;;;3.19;80.16
42247;BME280;27913;42.722;23.268;2022-12-18T11:22:36;96026.25;;;1.79;79.85
42247;BME280;27913;42.722;23.268;2022-12-18T11:27:39;96315.56;;;3.40;80.41
42247;BME280;27913;42.722;23.268;2022-12-18T11:32:52;96038.38;;;1.78;80.23
42247;BME280;27913;42.722;23.268;2022-12-18T11:35:59;96287.63;;;3.30;79.37
42247;BME280;27913;42.722;23.268;2022-12-18T11:38:35;96007.88;;;1.69;79.08
42247;BME280;27913;42.722;23.268;2022-12-18T11:41:39;96302.03;;;3.47;79.55
42247;BME280;27913;42.722;23.268;2022-12-18T11:44:35;96063.97;;;1.96;78.90
42247;BME280;27913;42.722;23.268;2022-12-18T11:47:13;96030.94;;;1.74;79.69
42247;BME280;27913;42.722;23.268;2022-12-18T11:49:42;96186.53;;;2.76;80.17
42247;BME280;27913;42.722;23.268;2022-12-18T11:54:40;96303.56;;;3.50;80.12
42247;BME280;27913;42.722;23.268;2022-12-18T12:00:11;96231.84;;;3.10;80.50
42247;BME280;27913;42.722;23.268;2022-12-18T12:08:52;96292.03;;;3.41;80.95
42247;BME280;27913;42.722;23.268;2022-12-18T12:11:36;96230.72;;;3.01;80.38
42247;BME280;27913;42.722;23.268;2022-12-18T12:20:32;96244.41;;;2.92;80.67
42247;BME280;27913;42.722;23.268;2022-12-18T12:23:03;96248.41;;;3.09;81.21
42247;BME280;27913;42.722;23.268;2022-12-18T12:31:47;96215.38;;;2.85;81.25
42247;BME280;27913;42.722;23.268;2022-12-18T12:34:27;96317.75;;;3.46;81.97
42247;BME280;27913;42.722;23.268;2022-12-18T12:40:06;96262.16;;;3.22;81.74
42247;BME280;27913;42.722;23.268;2022-12-18T12:42:41;96166.50;;;2.65;81.03
42247;BME280;27913;42.722;23.268;2022-12-18T12:45:38;96310.72;;;3.59;81.34
42247;BME280;27913;42.722;23.268;2022-12-18T12:48:09;96185.03;;;2.85;79.91
42247;BME280;27913;42.722;23.268;2022-12-18T12:50:37;96095.41;;;2.17;79.91
42247;BME280;27913;42.722;23.268;2022-12-18T12:53:08;96174.78;;;2.71;79.93
42247;BME280;27913;42.722;23.268;2022-12-18T12:55:38;96256.56;;;3.16;79.75
42247;BME280;27913;42.722;23.268;2022-12-18T13:09:08;96074.06;;;1.88;80.62
42247;BME280;27913;42.722;23.268;2022-12-18T13:11:38;96321.00;;;3.36;81.51
42247;BME280;27913;42.722;23.268;2022-12-18T13:19:43;96334.84;;;3.37;81.29
42247;BME280;27913;42.722;23.268;2022-12-18T13:22:23;96233.41;;;2.75;80.95
42247;BME280;27913;42.722;23.268;2022-12-18T13:24:50;96255.44;;;2.82;81.00
42247;BME280;27913;42.722;23.268;2022-12-18T13:38:35;96293.94;;;3.01;81.93
42247;BME280;27913;42.722;23.268;2022-12-18T13:41:21;96301.03;;;2.99;81.38
42247;BME280;27913;42.722;23.268;2022-12-18T13:43:52;96150.75;;;2.05;80.08
42247;BME280;27913;42.722;23.268;2022-12-18T13:46:19;96352.13;;;3.25;79.88
42247;BME280;27913;42.722;23.268;2022-12-18T13:48:51;96257.34;;;2.67;79.93
42247;BME280;27913;42.722;23.268;2022-12-18T13:51:19;96369.16;;;3.29;80.11
42247;BME280;27913;42.722;23.268;2022-12-18T13:53:58;96317.25;;;2.90;79.28
42247;BME280;27913;42.722;23.268;2022-12-18T13:56:32;96369.50;;;3.24;79.51
42247;BME280;27913;42.722;23.268;2022-12-18T14:01:53;96259.50;;;2.60;78.78
42247;BME280;27913;42.722;23.268;2022-12-18T14:07:15;96309.97;;;2.95;78.45
42247;BME280;27913;42.722;23.268;2022-12-18T14:09:43;96175.75;;;2.06;77.94
42247;BME280;27913;42.722;23.268;2022-12-18T14:12:31;96384.56;;;3.32;78.09
42247;BME280;27913;42.722;23.268;2022-12-18T14:20:56;96213.75;;;2.20;77.63
42247;BME280;27913;42.722;23.268;2022-12-18T14:25:51;96242.81;;;2.25;76.93
42247;BME280;27913;42.722;23.268;2022-12-18T14:28:16;96100.75;;;1.38;76.79
42247;BME280;27913;42.722;23.268;2022-12-18T14:30:44;96127.91;;;1.45;76.88
42247;BME280;27913;42.722;23.268;2022-12-18T14:33:11;96348.41;;;3.16;96.21
42247;BME280;27913;42.722;23.268;2022-12-18T14:35:41;96378.81;;;3.53;80.98
42247;BME280;27913;42.722;23.268;2022-12-18T14:38:27;96399.06;;;3.48;76.61
42247;BME280;27913;42.722;23.268;2022-12-18T14:41:14;96386.44;;;3.30;75.87
42247;BME280;27913;42.722;23.268;2022-12-18T14:43:41;96305.84;;;2.67;75.97
42247;BME280;27913;42.722;23.268;2022-12-18T14:46:36;96386.34;;;3.32;75.80
42247;BME280;27913;42.722;23.268;2022-12-18T14:49:04;96405.78;;;3.26;75.39
42247;BME280;27913;42.722;23.268;2022-12-18T14:51:33;96399.88;;;3.24;75.14
42247;BME280;27913;42.722;23.268;2022-12-18T14:54:04;96402.06;;;3.17;74.71
42247;BME280;27913;42.722;23.268;2022-12-18T14:56:43;96300.25;;;2.47;74.38
42247;BME280;27913;42.722;23.268;2022-12-18T15:04:30;96349.41;;;2.63;75.08
42247;BME280;27913;42.722;23.268;2022-12-18T15:07:14;96162.78;;;1.54;74.53
42247;BME280;27913;42.722;23.268;2022-12-18T15:09:43;96414.25;;;3.04;74.54
42247;BME280;27913;42.722;23.268;2022-12-18T15:14:58;96413.63;;;3.00;74.05